Time;durP1;ratioP1;P1;durP2;ratioP2;P2;SDS_P1;SDS_P2;PMS_P1;PMS_P2;Temp;Humidity;BMP_temperature;BMP_pressure;BME280_temperature;BME280_humidity;BME280_pressure;Samples;Min_cycle;Max_cycle;Signal;HPM_P1;HPM_P2
2023/01/23 00:01:38;;;;;;;5.77;4.27;;;11.90;52.50;;;;;;5057694;28;20556;-82
2023/01/23 00:04:05;;;;;;;5.40;3.90;;;11.90;52.40;;;;;;5057040;28;20530;-82
2023/01/23 00:06:34;;;;;;;6.13;4.53;;;11.90;52.10;;;;;;5058415;28;20453;-82
2023/01/23 00:09:02;;;;;;;6.33;3.93;;;11.80;52.10;;;;;;5059742;28;20458;-82
2023/01/23 00:11:31;;;;;;;7.00;4.60;;;11.80;52.40;;;;;;5057480;28;20476;-82
2023/01/23 00:13:59;;;;;;;10.50;5.00;;;11.70;52.80;;;;;;5059838;28;20474;-83
2023/01/23 00:16:29;;;;;;;11.33;6.10;;;11.80;52.70;;;;;;5065678;28;20453;-82
2023/01/23 00:18:58;;;;;;;6.43;4.30;;;11.70;53.10;;;;;;5058493;28;20458;-82
2023/01/23 00:21:27;;;;;;;7.60;4.33;;;11.70;52.90;;;;;;5060914;28;20438;-82
2023/01/23 00:23:56;;;;;;;11.47;4.97;;;11.70;53.10;;;;;;5062073;28;20498;-82
2023/01/23 00:26:25;;;;;;;6.33;4.67;;;11.70;52.90;;;;;;5056667;28;20558;-83
2023/01/23 00:28:55;;;;;;;8.50;4.70;;;11.80;53.20;;;;;;5058148;28;20459;-83
2023/01/23 00:31:24;;;;;;;6.53;4.80;;;11.70;52.80;;;;;;5057619;28;20489;-81
2023/01/23 00:33:54;;;;;;;7.83;4.70;;;11.70;53.50;;;;;;5057877;28;20447;-82
2023/01/23 00:36:22;;;;;;;6.37;4.80;;;11.70;53.00;;;;;;5055472;28;20454;-82
2023/01/23 00:38:50;;;;;;;8.50;4.97;;;11.60;52.90;;;;;;5051762;28;20481;-82
2023/01/23 00:41:18;;;;;;;9.17;5.17;;;11.60;53.20;;;;;;5058981;28;20485;-82
2023/01/23 00:43:47;;;;;;;7.10;4.67;;;11.70;53.20;;;;;;5056791;28;20459;-82
2023/01/23 00:46:16;;;;;;;7.10;4.80;;;11.70;53.00;;;;;;5056021;28;20486;-82
2023/01/23 00:48:44;;;;;;;8.00;4.73;;;11.70;53.40;;;;;;5053500;28;20459;-82
2023/01/23 00:51:12;;;;;;;6.40;4.40;;;11.70;53.40;;;;;;5061715;28;20450;-81
2023/01/23 00:53:40;;;;;;;8.93;5.17;;;11.80;53.20;;;;;;5055113;28;20457;-82
2023/01/23 00:56:08;;;;;;;7.20;4.67;;;11.80;53.30;;;;;;5056609;28;20472;-83
2023/01/23 00:58:36;;;;;;;8.90;5.23;;;11.80;53.00;;;;;;5069550;28;20472;-82
2023/01/23 01:01:04;;;;;;;7.97;5.20;;;11.90;52.90;;;;;;5054440;28;20454;-83
2023/01/23 01:03:34;;;;;;;6.80;4.80;;;11.90;53.20;;;;;;5060003;28;20470;-82
2023/01/23 01:06:02;;;;;;;8.00;5.10;;;11.90;53.00;;;;;;5067380;28;20464;-83
2023/01/23 01:08:30;;;;;;;5.23;4.13;;;11.80;52.60;;;;;;5057163;28;20458;-83
2023/01/23 01:10:58;;;;;;;8.67;5.40;;;11.80;52.90;;;;;;5057957;28;20485;-82
2023/01/23 01:13:25;;;;;;;12.70;5.00;;;11.80;52.70;;;;;;5062767;28;20475;-82
2023/01/23 01:15:53;;;;;;;9.13;4.53;;;11.80;53.00;;;;;;5058697;28;20445;-83
2023/01/23 01:18:22;;;;;;;9.80;4.77;;;11.90;52.70;;;;;;5053662;28;20462;-82
2023/01/23 01:20:51;;;;;;;9.20;4.87;;;11.90;52.80;;;;;;5063066;28;20454;-82
2023/01/23 01:23:20;;;;;;;6.77;4.17;;;11.90;52.80;;;;;;5051779;28;20565;-82
2023/01/23 01:25:47;;;;;;;6.27;4.40;;;11.80;52.20;;;;;;5059730;28;20476;-81
2023/01/23 01:28:16;;;;;;;8.77;3.90;;;11.80;52.60;;;;;;5061223;28;20443;-82
2023/01/23 01:30:44;;;;;;;7.83;4.40;;;11.70;52.90;;;;;;5063770;28;20504;-81
2023/01/23 01:33:12;;;;;;;6.53;4.37;;;11.80;52.90;;;;;;5048246;28;20478;-81
2023/01/23 01:35:41;;;;;;;7.63;4.73;;;11.80;53.10;;;;;;5055617;28;20456;-82
2023/01/23 01:38:10;;;;;;;6.80;5.00;;;11.80;52.80;;;;;;5063672;28;20471;-82
2023/01/23 01:40:38;;;;;;;179.13;88.87;;;11.70;53.00;;;;;;5056149;28;20465;-82
2023/01/23 01:43:08;;;;;;;129.50;63.30;;;11.80;53.10;;;;;;5046148;28;20466;-83
2023/01/23 01:46:06;;;;;;;137.77;67.70;;;11.80;52.80;;;;;;5053892;28;20596;-83
2023/01/23 01:48:37;;;;;;;107.70;54.27;;;11.90;53.40;;;;;;5054063;28;20451;-82
2023/01/23 01:51:07;;;;;;;76.30;38.93;;;11.90;53.20;;;;;;5055489;28;20453;-83
2023/01/23 01:53:37;;;;;;;62.77;31.40;;;11.90;53.00;;;;;;5060216;28;20489;-82
2023/01/23 01:56:05;;;;;;;39.40;22.27;;;11.90;53.10;;;;;;5056178;28;20502;-83
2023/01/23 01:58:33;;;;;;;34.80;18.17;;;12.00;53.00;;;;;;5053463;28;20478;-83
2023/01/23 02:01:01;;;;;;;23.87;14.00;;;12.00;53.00;;;;;;5056840;28;20469;-83
2023/01/23 02:03:29;;;;;;;16.60;10.20;;;12.00;52.50;;;;;;5057337;28;20470;-82
2023/01/23 02:05:57;;;;;;;16.03;8.17;;;11.90;52.70;;;;;;5055412;28;20485;-83
2023/01/23 02:08:27;;;;;;;10.27;6.90;;;11.90;53.10;;;;;;5060033;28;20465;-83
2023/01/23 02:11:00;;;;;;;9.83;6.27;;;11.90;53.10;;;;;;5057297;28;20478;-83
2023/01/23 02:13:32;;;;;;;7.60;5.97;;;12.00;53.00;;;;;;5058252;28;20493;-83
2023/01/23 02:16:01;;;;;;;10.90;5.53;;;12.00;53.10;;;;;;5056617;28;20835;-82
2023/01/23 02:18:29;;;;;;;7.40;4.70;;;12.00;52.80;;;;;;5048997;28;20513;-83
2023/01/23 02:20:59;;;;;;;6.00;4.20;;;12.10;52.90;;;;;;5054718;28;20450;-83
2023/01/23 02:23:42;;;;;;;5.80;3.87;;;12.10;52.50;;;;;;5059648;28;20478;-83
2023/01/23 02:26:13;;;;;;;4.57;3.77;;;12.10;52.70;;;;;;5055551;28;20485;-83
2023/01/23 02:28:44;;;;;;;8.87;3.60;;;12.10;52.50;;;;;;5054641;28;20441;-83
2023/01/23 02:31:13;;;;;;;4.80;3.70;;;12.10;52.30;;;;;;5055992;28;20450;-83
2023/01/23 02:33:47;;;;;;;8.50;3.40;;;12.10;52.40;;;;;;5056143;28;20456;-83
2023/01/23 02:36:16;;;;;;;3.57;2.80;;;12.00;52.10;;;;;;5052740;28;20461;-82
2023/01/23 02:39:00;;;;;;;3.73;3.37;;;12.00;52.20;;;;;;5057122;28;20466;-81
2023/01/23 02:41:31;;;;;;;3.40;3.10;;;12.00;52.20;;;;;;5057005;28;20490;-82
2023/01/23 02:44:00;;;;;;;9.13;3.70;;;12.00;52.10;;;;;;5062348;28;20449;-82
2023/01/23 02:46:28;;;;;;;5.73;3.37;;;11.90;52.20;;;;;;5060744;28;20439;-81
2023/01/23 02:48:56;;;;;;;6.60;2.80;;;11.90;52.30;;;;;;5053493;28;20446;-81
2023/01/23 02:51:24;;;;;;;7.90;3.83;;;11.90;52.20;;;;;;5059117;28;20456;-82
2023/01/23 02:53:52;;;;;;;5.70;3.40;;;11.90;52.20;;;;;;5056843;28;20467;-82
2023/01/23 02:56:20;;;;;;;3.33;2.67;;;11.90;52.90;;;;;;5051445;28;20469;-81
2023/01/23 03:01:35;;;;;;;4.77;2.70;;;11.80;52.20;;;;;;5063517;28;20476;-81
2023/01/23 03:04:05;;;;;;;3.57;2.90;;;11.70;52.40;;;;;;5050502;28;20451;-82
2023/01/23 03:06:36;;;;;;;4.73;3.07;;;11.70;52.50;;;;;;5058492;28;20453;-83
2023/01/23 03:09:06;;;;;;;4.63;3.37;;;11.70;52.10;;;;;;5054571;28;20454;-83
2023/01/23 03:11:38;;;;;;;6.13;3.40;;;11.70;52.70;;;;;;5054501;28;20480;-82
2023/01/23 03:14:09;;;;;;;5.20;3.30;;;11.70;52.40;;;;;;5053482;28;20465;-83
2023/01/23 03:16:37;;;;;;;7.33;3.07;;;11.70;52.60;;;;;;5054661;28;20461;-82
2023/01/23 03:19:07;;;;;;;7.37;3.73;;;11.70;52.40;;;;;;5054535;28;20481;-83
2023/01/23 03:21:36;;;;;;;3.60;3.30;;;11.70;52.50;;;;;;5056327;28;20512;-82
2023/01/23 03:24:05;;;;;;;4.33;3.10;;;11.70;52.60;;;;;;5054065;28;20477;-83
2023/01/23 03:26:33;;;;;;;4.40;3.00;;;11.70;52.70;;;;;;5055436;28;20485;-83
2023/01/23 03:31:48;;;;;;;5.43;3.70;;;11.60;52.60;;;;;;5054965;28;20473;-82
2023/01/23 03:34:17;;;;;;;3.57;3.27;;;11.60;52.50;;;;;;5055090;28;20511;-82
2023/01/23 03:36:45;;;;;;;5.93;3.97;;;11.60;52.60;;;;;;5063867;28;20445;-83
2023/01/23 03:41:59;;;;;;;3.50;3.20;;;11.60;52.80;;;;;;5059764;28;20462;-83
2023/01/23 03:44:27;;;;;;;3.30;3.10;;;11.60;52.80;;;;;;5066677;28;20457;-83
2023/01/23 03:46:57;;;;;;;3.80;3.50;;;11.60;52.80;;;;;;5060996;28;20462;-82
2023/01/23 03:49:25;;;;;;;4.83;3.40;;;11.60;52.80;;;;;;5061068;28;20446;-82
2023/01/23 03:51:53;;;;;;;4.07;3.30;;;11.60;52.60;;;;;;5059439;28;20462;-82
2023/01/23 03:54:20;;;;;;;8.07;3.70;;;11.60;52.60;;;;;;5058261;28;20458;-82
2023/01/23 03:56:49;;;;;;;7.70;3.90;;;11.70;52.70;;;;;;5056583;28;20501;-82
2023/01/23 03:59:16;;;;;;;5.60;3.80;;;11.60;52.80;;;;;;5058160;28;20470;-82
2023/01/23 04:01:44;;;;;;;6.10;3.73;;;11.60;52.50;;;;;;5062475;28;20472;-82
2023/01/23 04:04:13;;;;;;;5.37;3.50;;;11.60;52.60;;;;;;5060868;28;20454;-82
2023/01/23 04:06:41;;;;;;;6.13;3.63;;;11.60;52.70;;;;;;5052679;28;20451;-82
2023/01/23 04:09:09;;;;;;;3.90;3.27;;;11.60;52.60;;;;;;5062080;28;20450;-82
2023/01/23 04:11:37;;;;;;;4.97;3.67;;;11.60;52.60;;;;;;5058753;28;20544;-81
2023/01/23 04:14:05;;;;;;;9.87;3.90;;;11.60;52.70;;;;;;5059170;28;20455;-82
2023/01/23 04:16:32;;;;;;;5.00;3.73;;;11.60;52.80;;;;;;5061407;28;20477;-82
2023/01/23 04:19:00;;;;;;;4.77;4.10;;;11.60;52.70;;;;;;5056002;28;20482;-82
2023/01/23 04:21:29;;;;;;;4.67;3.40;;;11.60;53.10;;;;;;5060406;28;20521;-81
2023/01/23 04:23:57;;;;;;;4.60;3.57;;;11.70;52.90;;;;;;5058829;28;20457;-81
2023/01/23 04:26:25;;;;;;;5.00;4.00;;;11.70;52.90;;;;;;5055517;28;20473;-81
2023/01/23 04:28:53;;;;;;;5.23;3.70;;;11.70;52.70;;;;;;5055533;28;20458;-82
2023/01/23 04:31:21;;;;;;;4.67;3.53;;;11.70;52.60;;;;;;5054784;28;20525;-82
2023/01/23 04:33:49;;;;;;;4.30;3.27;;;11.70;52.40;;;;;;5059756;28;20441;-82
2023/01/23 04:36:17;;;;;;;7.83;4.07;;;11.70;52.50;;;;;;5055351;28;20454;-81
2023/01/23 04:38:47;;;;;;;3.87;3.43;;;11.70;52.80;;;;;;5058115;28;20454;-81
2023/01/23 04:41:17;;;;;;;6.60;3.60;;;11.70;52.40;;;;;;5054203;28;20474;-81
2023/01/23 04:43:46;;;;;;;5.40;3.37;;;11.80;52.40;;;;;;5052679;28;20448;-81
2023/01/23 04:46:14;;;;;;;5.50;3.83;;;11.70;52.30;;;;;;5058830;28;20466;-82
2023/01/23 04:48:42;;;;;;;7.70;4.20;;;11.70;52.60;;;;;;5058049;28;20446;-81
2023/01/23 04:51:10;;;;;;;8.23;3.70;;;11.60;52.40;;;;;;5057901;28;20459;-82
2023/01/23 04:53:38;;;;;;;6.90;4.20;;;11.70;52.30;;;;;;5066442;28;20457;-82
2023/01/23 04:56:08;;;;;;;6.20;4.10;;;11.70;52.60;;;;;;5058021;28;20482;-82
2023/01/23 04:58:36;;;;;;;4.77;3.63;;;11.60;53.00;;;;;;5061898;28;20462;-82
2023/01/23 05:01:05;;;;;;;7.10;4.23;;;11.60;52.90;;;;;;5058706;28;20474;-82
2023/01/23 05:03:33;;;;;;;5.20;3.77;;;11.60;52.80;;;;;;5061225;28;20478;-82
2023/01/23 05:06:02;;;;;;;6.83;4.73;;;11.70;52.40;;;;;;5056469;28;20448;-82
2023/01/23 05:08:30;;;;;;;11.37;3.80;;;11.60;52.60;;;;;;5060475;28;20466;-82
2023/01/23 05:10:57;;;;;;;8.80;3.90;;;11.70;52.80;;;;;;5059458;28;21007;-82
2023/01/23 05:13:27;;;;;;;7.97;4.33;;;11.70;52.40;;;;;;5062253;28;20474;-82
2023/01/23 05:15:54;;;;;;;8.83;4.33;;;11.60;52.30;;;;;;5054010;28;20458;-82
2023/01/23 05:18:22;;;;;;;9.70;4.80;;;11.60;52.60;;;;;;5060436;28;20475;-82
2023/01/23 05:20:50;;;;;;;5.37;4.20;;;11.60;52.70;;;;;;5056564;28;20471;-82
2023/01/23 05:23:18;;;;;;;5.47;4.40;;;11.60;52.40;;;;;;5053405;28;20505;-82
2023/01/23 05:25:46;;;;;;;4.37;3.97;;;11.60;52.70;;;;;;5055979;28;20468;-82
2023/01/23 05:28:15;;;;;;;7.27;4.70;;;11.60;52.60;;;;;;5060874;28;20462;-82
2023/01/23 05:30:44;;;;;;;6.50;3.90;;;11.60;52.10;;;;;;5056170;28;20453;-81
2023/01/23 05:33:12;;;;;;;13.13;4.73;;;11.60;52.60;;;;;;5061041;28;20462;-82
2023/01/23 05:35:40;;;;;;;6.50;4.83;;;11.60;52.40;;;;;;5063380;28;20457;-82
2023/01/23 05:38:09;;;;;;;5.90;4.60;;;11.60;52.40;;;;;;5057754;28;20453;-82
2023/01/23 05:40:37;;;;;;;6.00;4.67;;;11.60;52.50;;;;;;5060699;28;20489;-82
2023/01/23 05:43:05;;;;;;;6.10;4.20;;;11.60;52.10;;;;;;5058053;28;20486;-82
2023/01/23 05:45:34;;;;;;;5.57;4.67;;;11.60;52.70;;;;;;5054491;28;20537;-82
2023/01/23 05:48:03;;;;;;;6.57;4.90;;;11.60;52.40;;;;;;5058877;28;20450;-82
2023/01/23 05:50:31;;;;;;;5.63;4.87;;;11.60;52.40;;;;;;5061226;28;20451;-82
2023/01/23 05:53:01;;;;;;;6.77;4.60;;;11.60;52.70;;;;;;5062845;28;20472;-81
2023/01/23 05:55:29;;;;;;;5.10;4.53;;;11.60;52.60;;;;;;5061564;28;20559;-82
2023/01/23 05:57:57;;;;;;;7.97;4.93;;;11.60;52.60;;;;;;5057522;28;20449;-82
2023/01/23 06:00:25;;;;;;;5.77;5.27;;;11.60;52.40;;;;;;5056658;28;20565;-81
2023/01/23 06:02:53;;;;;;;6.27;4.83;;;11.70;52.30;;;;;;5056427;28;20501;-82
2023/01/23 06:05:22;;;;;;;8.03;4.50;;;11.60;52.20;;;;;;5059837;28;20459;-82
2023/01/23 06:07:50;;;;;;;5.33;4.83;;;11.60;51.70;;;;;;5060125;28;20449;-82
2023/01/23 06:10:18;;;;;;;12.73;8.43;;;11.60;52.40;;;;;;5055685;28;20467;-82
2023/01/23 06:12:46;;;;;;;12.67;8.30;;;11.60;52.30;;;;;;5056500;28;20520;-81
2023/01/23 06:15:15;;;;;;;12.43;7.47;;;11.60;52.60;;;;;;5055317;28;20457;-82
2023/01/23 06:17:43;;;;;;;12.53;8.30;;;11.50;52.60;;;;;;5058265;28;20452;-82
2023/01/23 06:20:12;;;;;;;11.20;7.40;;;11.60;52.50;;;;;;5059281;28;20470;-82
2023/01/23 06:22:41;;;;;;;11.77;6.90;;;11.60;52.70;;;;;;5058612;28;20477;-82
2023/01/23 06:25:10;;;;;;;7.03;5.90;;;11.60;52.60;;;;;;5056022;28;20450;-82
2023/01/23 06:27:38;;;;;;;8.60;6.50;;;11.60;52.60;;;;;;5060916;28;20461;-81
2023/01/23 06:30:07;;;;;;;13.40;6.53;;;11.60;52.40;;;;;;5053098;28;20466;-81
2023/01/23 06:32:35;;;;;;;8.20;5.93;;;11.60;52.60;;;;;;5059196;28;20470;-82
2023/01/23 06:35:03;;;;;;;7.00;6.13;;;11.60;52.30;;;;;;5061396;28;20516;-81
2023/01/23 06:37:31;;;;;;;7.80;6.03;;;11.60;52.10;;;;;;5060034;28;20457;-82
2023/01/23 06:40:01;;;;;;;9.07;6.20;;;11.50;52.40;;;;;;5054581;28;20466;-80
2023/01/23 06:42:29;;;;;;;6.90;5.47;;;11.50;52.30;;;;;;5063527;28;20482;-82
2023/01/23 06:44:57;;;;;;;7.17;5.90;;;11.60;52.50;;;;;;5057792;28;20481;-82
2023/01/23 06:47:26;;;;;;;10.60;7.00;;;11.60;52.10;;;;;;5056884;28;20461;-82
2023/01/23 06:49:54;;;;;;;7.13;6.17;;;11.60;51.70;;;;;;5057841;28;20466;-82
2023/01/23 06:52:22;;;;;;;8.60;5.97;;;11.50;51.60;;;;;;5065730;28;20481;-81
2023/01/23 06:54:50;;;;;;;8.77;6.40;;;11.60;52.40;;;;;;5057033;28;20537;-81
2023/01/23 06:57:20;;;;;;;7.83;6.40;;;11.70;51.90;;;;;;5054959;28;20823;-83
2023/01/23 06:59:48;;;;;;;9.17;6.13;;;11.60;51.60;;;;;;5060035;28;20521;-81
2023/01/23 07:02:16;;;;;;;8.77;6.03;;;11.60;51.90;;;;;;5053546;28;20484;-82
2023/01/23 07:04:44;;;;;;;10.40;6.30;;;11.50;52.20;;;;;;5054402;28;20472;-82
2023/01/23 07:07:12;;;;;;;7.50;6.20;;;11.50;52.10;;;;;;5060007;28;20459;-82
2023/01/23 07:09:39;;;;;;;12.83;6.47;;;11.60;52.40;;;;;;5060077;28;20441;-81
2023/01/23 07:12:07;;;;;;;7.10;6.40;;;11.60;52.40;;;;;;5058525;28;20468;-81
2023/01/23 07:14:37;;;;;;;9.23;6.37;;;11.60;52.10;;;;;;5059894;28;20481;-83
2023/01/23 07:17:05;;;;;;;8.17;6.40;;;11.60;52.10;;;;;;5057665;28;20452;-82
2023/01/23 07:19:33;;;;;;;11.77;6.80;;;11.60;52.00;;;;;;5061875;28;20461;-82
2023/01/23 07:22:02;;;;;;;8.27;6.93;;;11.60;52.30;;;;;;5063956;28;20469;-82
2023/01/23 07:24:31;;;;;;;8.13;6.70;;;11.50;52.20;;;;;;5063200;28;20454;-81
2023/01/23 07:26:59;;;;;;;15.37;8.00;;;11.60;51.90;;;;;;5063272;28;20473;-83
2023/01/23 07:29:27;;;;;;;9.83;7.20;;;11.50;52.10;;;;;;5070047;28;20450;-83
2023/01/23 07:31:59;;;;;;;9.83;6.80;;;11.50;52.50;;;;;;5063387;28;20473;-81
2023/01/23 07:34:28;;;;;;;9.13;7.20;;;11.50;52.00;;;;;;5067955;28;20546;-82
2023/01/23 07:36:56;;;;;;;7.80;6.30;;;11.50;52.60;;;;;;5059856;28;20457;-81
2023/01/23 07:39:24;;;;;;;10.70;6.93;;;11.60;52.60;;;;;;5059443;28;20463;-82
2023/01/23 07:41:52;;;;;;;10.57;7.13;;;11.50;52.10;;;;;;5066712;28;20526;-81
2023/01/23 07:44:21;;;;;;;9.00;7.40;;;11.60;52.30;;;;;;5058397;28;20461;-82
2023/01/23 07:46:50;;;;;;;12.27;7.73;;;11.50;52.10;;;;;;5061412;28;20454;-80
2023/01/23 07:49:19;;;;;;;9.30;7.00;;;11.50;52.20;;;;;;5064427;28;20520;-82
2023/01/23 07:51:48;;;;;;;14.30;8.40;;;11.50;52.20;;;;;;5065280;28;20477;-82
2023/01/23 07:54:16;;;;;;;11.70;7.93;;;11.50;52.00;;;;;;5059058;28;20453;-82
2023/01/23 07:56:44;;;;;;;9.97;7.63;;;11.50;52.10;;;;;;5059159;28;20485;-81
2023/01/23 07:59:12;;;;;;;12.13;8.23;;;11.50;52.40;;;;;;5058972;28;20454;-80
2023/01/23 08:01:40;;;;;;;14.00;8.50;;;11.40;52.30;;;;;;5066310;28;20501;-82
2023/01/23 08:04:08;;;;;;;12.20;8.53;;;11.50;52.40;;;;;;5057162;28;20468;-81
2023/01/23 08:06:37;;;;;;;18.10;10.27;;;11.50;52.50;;;;;;5057395;28;20461;-80
2023/01/23 08:09:05;;;;;;;16.40;10.57;;;11.50;52.40;;;;;;5053697;28;20491;-80
2023/01/23 08:11:33;;;;;;;15.50;9.40;;;11.50;52.80;;;;;;5054012;28;20470;-81
2023/01/23 08:14:01;;;;;;;19.30;11.90;;;11.50;52.80;;;;;;5062257;28;20541;-81
2023/01/23 08:16:30;;;;;;;21.73;13.57;;;11.50;52.20;;;;;;5055780;28;20457;-82
2023/01/23 08:18:58;;;;;;;23.47;13.07;;;11.50;52.70;;;;;;5059622;28;20643;-83
2023/01/23 08:21:26;;;;;;;20.30;12.10;;;11.50;52.70;;;;;;5064577;28;20474;-82
2023/01/23 08:23:56;;;;;;;18.13;11.20;;;11.60;52.30;;;;;;5053833;28;20527;-81
2023/01/23 08:26:24;;;;;;;15.93;10.60;;;11.60;52.70;;;;;;5052099;28;20478;-81
2023/01/23 08:28:52;;;;;;;16.43;9.90;;;11.60;52.50;;;;;;5055927;28;20461;-82
2023/01/23 08:31:21;;;;;;;13.30;9.70;;;11.60;52.40;;;;;;5055623;28;20447;-82
2023/01/23 08:33:49;;;;;;;11.83;9.43;;;11.70;52.60;;;;;;5056297;28;20461;-82
2023/01/23 08:36:17;;;;;;;13.80;9.03;;;11.70;52.50;;;;;;5061188;28;20451;-81
2023/01/23 08:38:46;;;;;;;21.50;13.80;;;11.70;52.20;;;;;;5059980;28;20456;-82
2023/01/23 08:41:16;;;;;;;34.73;18.77;;;11.70;52.50;;;;;;5052508;28;20482;-82
2023/01/23 08:43:44;;;;;;;23.27;14.47;;;11.80;52.60;;;;;;5056005;28;20518;-82
2023/01/23 08:46:12;;;;;;;20.77;11.67;;;11.70;52.30;;;;;;5054585;28;20442;-82
2023/01/23 08:48:41;;;;;;;19.67;10.87;;;11.70;52.50;;;;;;5059314;28;20520;-81
2023/01/23 08:51:10;;;;;;;19.60;11.40;;;11.70;52.60;;;;;;5055188;28;20514;-80
2023/01/23 08:53:38;;;;;;;16.57;10.40;;;11.80;52.60;;;;;;5054947;28;20504;-80
2023/01/23 08:56:08;;;;;;;10.80;8.63;;;11.80;52.30;;;;;;5051107;28;20558;-83
2023/01/23 08:58:37;;;;;;;15.00;9.80;;;11.80;52.40;;;;;;5060493;28;20450;-82
2023/01/23 09:01:06;;;;;;;14.83;9.17;;;11.80;52.30;;;;;;5052756;28;20461;-83
2023/01/23 09:03:34;;;;;;;15.13;9.27;;;11.80;52.00;;;;;;5054797;28;20549;-82
2023/01/23 09:06:02;;;;;;;10.20;8.27;;;11.80;52.50;;;;;;5051418;28;20459;-81
2023/01/23 09:08:30;;;;;;;14.30;9.40;;;11.80;52.50;;;;;;5058712;28;20465;-81
2023/01/23 09:11:00;;;;;;;15.33;9.17;;;11.80;52.30;;;;;;5063787;28;20466;-81
2023/01/23 09:13:28;;;;;;;17.33;9.50;;;11.90;52.30;;;;;;5059936;28;20470;-81
2023/01/23 09:15:58;;;;;;;11.87;8.77;;;11.90;52.10;;;;;;5065719;28;20456;-81
2023/01/23 09:18:26;;;;;;;10.60;7.67;;;11.80;52.20;;;;;;5055040;28;20454;-80
2023/01/23 09:20:54;;;;;;;22.00;11.13;;;11.80;52.50;;;;;;5066251;28;20483;-81
2023/01/23 09:23:23;;;;;;;16.07;10.83;;;11.80;52.40;;;;;;5059840;28;20482;-82
2023/01/23 09:25:51;;;;;;;16.80;10.50;;;11.80;52.40;;;;;;5057320;28;20470;-80
2023/01/23 09:28:19;;;;;;;16.47;10.57;;;11.80;52.40;;;;;;5053954;28;20457;-81
2023/01/23 09:30:47;;;;;;;14.03;9.17;;;11.80;52.50;;;;;;5060005;28;20512;-82
2023/01/23 09:33:16;;;;;;;13.60;9.53;;;11.90;52.30;;;;;;5053337;28;20466;-82
2023/01/23 09:35:45;;;;;;;13.20;8.90;;;11.90;52.30;;;;;;5054890;28;20908;-82
2023/01/23 09:38:12;;;;;;;14.17;8.87;;;12.00;52.30;;;;;;5053956;28;20453;-82
2023/01/23 09:40:45;;;;;;;15.17;9.10;;;12.00;52.00;;;;;;5061904;28;20848;-82
2023/01/23 09:43:15;;;;;;;28.80;14.93;;;12.00;52.10;;;;;;5063229;28;20470;-82
2023/01/23 09:45:46;;;;;;;17.77;12.63;;;12.10;52.00;;;;;;5060992;28;20446;-81
2023/01/23 09:48:20;;;;;;;20.10;12.53;;;12.00;51.80;;;;;;5056727;28;20483;-82
2023/01/23 09:50:53;;;;;;;20.10;12.07;;;12.00;51.90;;;;;;5062054;28;20456;-82
2023/01/23 09:53:22;;;;;;;16.97;11.27;;;12.10;52.00;;;;;;5062793;28;20489;-82
2023/01/23 09:55:53;;;;;;;24.87;14.87;;;12.10;52.00;;;;;;5050181;28;20470;-82
2023/01/23 09:58:27;;;;;;;25.60;15.70;;;12.20;52.10;;;;;;5055953;28;20509;-82
2023/01/23 10:00:55;;;;;;;19.70;13.07;;;12.20;51.80;;;;;;5057673;28;20449;-82
2023/01/23 10:03:26;;;;;;;19.43;11.83;;;12.20;51.70;;;;;;5062994;28;20542;-83
2023/01/23 10:06:01;;;;;;;16.80;11.03;;;12.20;51.80;;;;;;5056237;28;20450;-81
2023/01/23 10:08:32;;;;;;;15.10;10.33;;;12.20;51.70;;;;;;5059829;28;20589;-81
2023/01/23 10:11:03;;;;;;;16.10;10.03;;;12.10;51.70;;;;;;5048668;28;20492;-81
2023/01/23 10:13:46;;;;;;;17.80;9.73;;;12.10;51.80;;;;;;5053742;28;20475;-82
2023/01/23 10:16:39;;;;;;;15.53;9.83;;;12.10;52.00;;;;;;5054020;28;20458;-81
2023/01/23 10:19:23;;;;;;;16.10;9.80;;;12.10;52.10;;;;;;5051236;28;20519;-82
2023/01/23 10:21:53;;;;;;;19.70;10.00;;;12.20;51.90;;;;;;5057542;28;20477;-83
2023/01/23 10:24:29;;;;;;;16.97;9.90;;;12.10;51.90;;;;;;5056103;28;20447;-82
2023/01/23 10:27:15;;;;;;;18.63;9.77;;;12.20;51.80;;;;;;5055086;28;20454;-81
2023/01/23 10:29:45;;;;;;;13.53;9.50;;;12.20;52.00;;;;;;5051906;28;20448;-81
2023/01/23 10:32:21;;;;;;;15.50;10.00;;;12.20;51.80;;;;;;5057661;28;20516;-82
2023/01/23 10:34:54;;;;;;;12.40;8.50;;;12.30;51.80;;;;;;5066386;28;20438;-81
2023/01/23 10:37:31;;;;;;;13.90;9.70;;;12.20;51.60;;;;;;5056538;28;20463;-81
2023/01/23 10:40:00;;;;;;;20.23;12.20;;;12.20;51.50;;;;;;5068102;28;20438;-81
2023/01/23 10:42:28;;;;;;;16.60;9.33;;;12.10;52.50;;;;;;5062146;28;20474;-80
2023/01/23 10:44:56;;;;;;;13.77;9.23;;;12.30;53.00;;;;;;5053767;28;20453;-80
2023/01/23 10:47:26;;;;;;;20.50;13.00;;;12.40;53.00;;;;;;5057465;28;20522;-80
2023/01/23 10:50:01;;;;;;;25.60;14.07;;;12.30;52.80;;;;;;5046853;28;20451;-79
2023/01/23 10:52:31;;;;;;;31.07;16.30;;;12.30;52.80;;;;;;5051658;28;20460;-79
2023/01/23 10:54:59;;;;;;;17.80;12.00;;;12.40;52.50;;;;;;5056795;28;20517;-81
2023/01/23 10:57:28;;;;;;;17.80;11.63;;;12.40;52.50;;;;;;5056030;28;20462;-80
2023/01/23 10:59:59;;;;;;;18.20;10.93;;;12.40;52.10;;;;;;5062740;28;20463;-79
2023/01/23 11:02:28;;;;;;;18.10;10.97;;;12.40;52.30;;;;;;5061385;28;20481;-80
2023/01/23 11:04:56;;;;;;;16.33;10.40;;;12.40;52.20;;;;;;5057985;28;20463;-80
2023/01/23 11:07:26;;;;;;;16.80;10.17;;;12.40;52.00;;;;;;5056153;28;20467;-79
2023/01/23 11:09:55;;;;;;;15.13;10.27;;;12.50;52.10;;;;;;5054062;28;20454;-80
2023/01/23 11:12:24;;;;;;;14.20;9.90;;;12.50;52.00;;;;;;5057509;28;20469;-80
2023/01/23 11:15:10;;;;;;;12.50;9.53;;;12.50;51.50;;;;;;5068733;28;20976;-80
2023/01/23 11:17:38;;;;;;;14.70;9.60;;;12.50;51.70;;;;;;5062570;28;20430;-79
2023/01/23 11:20:11;;;;;;;13.17;9.70;;;12.50;51.60;;;;;;5062322;28;20442;-78
2023/01/23 11:22:41;;;;;;;20.80;10.40;;;12.40;51.60;;;;;;5053218;28;20501;-79
2023/01/23 11:25:28;;;;;;;13.30;8.83;;;12.50;51.30;;;;;;5060274;28;20467;-79
2023/01/23 11:27:57;;;;;;;17.83;9.67;;;12.60;51.40;;;;;;5059086;28;20452;-80
2023/01/23 11:30:33;;;;;;;15.80;10.30;;;12.60;51.30;;;;;;5051035;28;20449;-79
2023/01/23 11:33:04;;;;;;;15.00;10.63;;;12.50;51.10;;;;;;5059540;28;20469;-80
2023/01/23 11:35:47;;;;;;;13.60;10.03;;;12.40;51.30;;;;;;5058468;28;20449;-79
2023/01/23 11:38:18;;;;;;;16.63;9.83;;;12.50;51.30;;;;;;5054702;28;20451;-80
2023/01/23 11:40:57;;;;;;;15.80;10.53;;;12.60;50.90;;;;;;5055618;28;20524;-79
2023/01/23 11:43:25;;;;;;;15.00;10.00;;;12.50;51.30;;;;;;5056885;28;20469;-79
2023/01/23 11:46:17;;;;;;;13.17;9.07;;;12.50;51.30;;;;;;5055349;28;20458;-80
2023/01/23 11:49:08;;;;;;;17.17;9.73;;;12.60;51.50;;;;;;5055351;28;20518;-78
2023/01/23 11:51:37;;;;;;;14.40;8.97;;;12.70;51.80;;;;;;5064384;28;20473;-78
2023/01/23 11:54:17;;;;;;;13.57;8.90;;;12.70;51.70;;;;;;5057607;28;20435;-79
2023/01/23 11:57:01;;;;;;;13.97;9.70;;;12.70;51.70;;;;;;5053257;28;20511;-79
2023/01/23 11:59:45;;;;;;;14.90;9.67;;;12.70;51.80;;;;;;5059196;28;20484;-80
2023/01/23 12:02:38;;;;;;;14.10;10.07;;;12.70;51.80;;;;;;5059802;28;20462;-81
2023/01/23 12:05:24;;;;;;;15.93;10.80;;;12.80;51.80;;;;;;5054675;28;20466;-77
2023/01/23 12:07:57;;;;;;;19.50;12.00;;;12.80;52.20;;;;;;5060600;28;20453;-80
2023/01/23 12:10:27;;;;;;;19.10;11.30;;;12.80;52.10;;;;;;5061904;28;20502;-82
2023/01/23 12:13:05;;;;;;;17.17;10.60;;;12.80;51.90;;;;;;5061327;28;20477;-80
2023/01/23 12:15:37;;;;;;;15.90;10.37;;;12.80;52.00;;;;;;5054655;28;20550;-79
2023/01/23 12:18:11;;;;;;;15.40;9.80;;;12.80;52.00;;;;;;5052738;28;20572;-80
2023/01/23 12:20:44;;;;;;;15.33;10.60;;;12.80;51.80;;;;;;5063275;28;20461;-80
2023/01/23 12:23:22;;;;;;;17.23;10.57;;;12.80;51.50;;;;;;5057808;28;20537;-79
2023/01/23 12:25:57;;;;;;;17.87;10.20;;;12.80;52.00;;;;;;5055327;28;20477;-79
2023/01/23 12:28:40;;;;;;;20.10;11.40;;;12.80;51.80;;;;;;5055591;28;20454;-79
2023/01/23 12:31:13;;;;;;;14.87;9.87;;;12.80;51.80;;;;;;5057687;28;20553;-79
2023/01/23 12:33:55;;;;;;;18.17;10.57;;;12.80;51.80;;;;;;5057603;28;20439;-79
2023/01/23 12:36:42;;;;;;;16.93;9.80;;;12.80;51.40;;;;;;5061443;28;20454;-79
2023/01/23 12:39:44;;;;;;;14.30;10.20;;;12.80;51.70;;;;;;5051038;28;20484;-80
2023/01/23 12:42:15;;;;;;;14.27;10.00;;;12.80;51.20;;;;;;5046251;28;20454;-77
2023/01/23 12:44:47;;;;;;;13.77;9.53;;;12.80;51.30;;;;;;5058857;28;20470;-79
2023/01/23 12:47:17;;;;;;;15.90;10.30;;;12.90;51.20;;;;;;5058884;28;20449;-79
2023/01/23 12:49:48;;;;;;;14.80;10.00;;;12.90;51.40;;;;;;5058780;28;20448;-80
2023/01/23 12:52:18;;;;;;;14.90;9.67;;;12.80;51.10;;;;;;5063820;28;20465;-78
2023/01/23 12:54:48;;;;;;;13.70;9.20;;;12.90;51.00;;;;;;5049743;28;20450;-79
2023/01/23 12:57:38;;;;;;;14.17;9.70;;;12.90;50.80;;;;;;5052118;28;20451;-79
2023/01/23 13:00:45;;;;;;;17.60;11.50;;;12.90;51.50;;;;;;5059739;28;20442;-80
2023/01/23 13:03:25;;;;;;;20.73;11.37;;;12.90;50.70;;;;;;5042943;28;20489;-80